Terminal Aerodrome Forecast
Issued by NWS

Home | Current Version | Previous Version | Text Only | Print | Product List | Glossary On
Versions: 1 2 3 4 5 6 7 8 9 10 11 12 13 14 15 16
000
FTUS43 KMPX 201100
TAFRWF
TAF
KRWF 201120Z 2012/2112 18010KT 6SM BR OVC012
     FM201500 17009KT 5SM BR BKN008 OVC025
     FM201900 18010KT P6SM OVC015
     FM210500 15009KT 5SM BR BKN015 OVC025=

USA.gov is the U.S. government's official web portal to all federal, state and local government web resources and services.